Blacksburg, VA

6:21 AM EDT on October 01, 2014 (GMT -0400)
Woodbine | Change Station
CLOSE
Current Station
Personal Weather Station
Location: Blacksburg, VA
Elevation: 2121 ft
Nearby Weather Stations

Elev 2121 ft 37.26 °N, 80.41 °W | Updated 8 seconds ago

Mist
Mist
47.5 °F
Feels Like 48 °F
N
0.0
Wind Variable Wind from SW
Gusts 0.0 mph

Today
High -- | Low -- °F
--% Chance of Precip.
Yesterday
High -- | Low -- °F
Precip. -- in
7:17 AM 7:04 PM
Waxing Crescent, 46% visible
Pressure 30.02 in
Visibility 1.8 miles
Clouds
Windchill 48 °F
Dew Point 47 °F
Humidity 99%
Rainfall 0.00 in
Snow Depth Not available.
UV Not available.
Pollen 4.30 out of 12
Air Quality Not available.
Flu Activity Not available.
METAR KBCB 010955Z AUTO 00000KT 1 3/4SM BR VV007 11/11 A3002 RMK AO2

More Conditions Fewer Conditions

Pressure 30.02 in
Visibility 1.8 miles
Clouds
Windchill 48 °F
Dew Point 47 °F
Humidity 99%
Rainfall 0.00 in
Snow Depth Not available.
UV Not available.
Pollen 4.30 out of 12
Air Quality Not available.
Flu Activity Not available.
METAR KBCB 010955Z AUTO 00000KT 1 3/4SM BR VV007 11/11 A3002 RMK AO2

More Conditions Fewer Conditions

10-Day Weather Forecast

Almanac

Astronomy

Oct. 01, 2014 Rise Set
Actual Time 7:17 AM EDT 7:04 PM EDT
Civil Twilight 6:51 AM EDT 7:30 PM EDT
Nautical Twilight 6:20 AM EDT 8:01 PM EDT
Astronomical Twilight 5:50 AM EDT 8:31 PM EDT
Moon 2:11 PM EDT No Moon Set
Length of Visible Light 12h 39m
Length of Day
11h 47m
Tomorrow will be 2m 22s shorter.
Waxing Crescent, 46% of the Moon is Illuminated
Today
Waxing Crescent
Oct 1
First Quarter
Oct 8
Full
Oct 15
Last Quarter
Oct 23
New

Today's Extremes

State Highs State Lows

Community

WunderPhotos

Upload Photos

1,757,905 photos uploaded!

WunderBlogs® & News

Nearby

Snow Depth

Station Depth Elevation
No new snow has been reported.

Earthquake Activity

City Distance Mag. Time & Date
No recent earthquake activity has been reported nearby.
Minimum magnitude displayed is 2.5.

Coastal Water Temperatures

Place Temperature
No Stations Reporting

Nearby Weather Stations